Time;durP1;ratioP1;P1;durP2;ratioP2;P2;SDS_P1;SDS_P2;PMS_P1;PMS_P2;Temp;Humidity;BMP_temperature;BMP_pressure;BME280_temperature;BME280_humidity;BME280_pressure;Samples;Min_cycle;Max_cycle;Signal;HPM_P1;HPM_P2
2024/01/29 00:00:33;;;;;;;2.40;2.20;;;;;;;19.71;36.20;102434.56;4996733;28;20046;-68
2024/01/29 00:02:59;;;;;;;3.42;2.50;;;;;;;19.66;36.09;102426.22;4988669;28;20050;-68
2024/01/29 00:05:24;;;;;;;2.38;2.00;;;;;;;19.71;36.01;102434.56;4989493;28;20054;-68
2024/01/29 00:07:50;;;;;;;2.53;2.08;;;;;;;19.72;36.18;102427.44;4983585;28;20344;-68
2024/01/29 00:10:15;;;;;;;2.35;1.92;;;;;;;19.66;36.17;102420.09;4990384;28;20038;-68
2024/01/29 00:12:41;;;;;;;3.42;2.38;;;;;;;19.63;36.27;102415.09;4990901;28;20096;-68
2024/01/29 00:15:07;;;;;;;2.80;2.17;;;;;;;19.65;36.20;102416.63;4990667;28;21872;-68
2024/01/29 00:17:32;;;;;;;3.42;2.42;;;;;;;19.65;36.23;102418.44;4985698;28;20065;-68
2024/01/29 00:19:58;;;;;;;2.88;2.08;;;;;;;19.59;36.31;102417.19;4995267;28;20037;-68
2024/01/29 00:22:23;;;;;;;3.92;2.45;;;;;;;19.55;36.32;102413.97;4983725;28;20068;-67
2024/01/29 00:24:49;;;;;;;3.03;2.10;;;;;;;19.53;36.19;102412.41;4987584;28;20509;-68
2024/01/29 00:27:14;;;;;;;2.88;2.03;;;;;;;19.53;36.34;102423.81;5005188;28;20054;-68
2024/01/29 00:29:40;;;;;;;2.88;2.28;;;;;;;19.52;36.32;102430.06;5002640;28;20459;-67
2024/01/29 00:32:06;;;;;;;3.28;2.13;;;;;;;19.52;36.30;102431.88;5005491;28;20039;-68
2024/01/29 00:34:32;;;;;;;3.05;2.40;;;;;;;19.55;36.26;102429.00;5010285;28;20052;-68
2024/01/29 00:36:57;;;;;;;3.22;2.17;;;;;;;19.46;36.30;102425.34;4988669;28;20038;-68
2024/01/29 00:39:23;;;;;;;3.20;2.30;;;;;;;19.43;36.37;102430.09;4993338;28;20042;-68
2024/01/29 00:41:49;;;;;;;3.17;2.33;;;;;;;19.48;36.31;102431.34;4984190;28;20044;-68
2024/01/29 00:44:17;;;;;;;2.92;2.20;;;;;;;19.50;36.21;102434.66;4982317;28;20038;-68
2024/01/29 00:46:42;;;;;;;4.18;2.50;;;;;;;19.35;36.48;102432.56;4982221;28;20041;-68
2024/01/29 00:49:08;;;;;;;3.38;2.40;;;;;;;19.46;36.24;102446.50;5001777;28;20042;-68
2024/01/29 00:51:33;;;;;;;2.38;2.17;;;;;;;19.45;36.44;102446.63;4998806;28;20030;-68
2024/01/29 00:53:59;;;;;;;2.45;2.10;;;;;;;19.45;36.26;102442.19;4984242;28;20547;-68
2024/01/29 00:56:24;;;;;;;2.70;2.20;;;;;;;19.41;36.40;102442.59;4991789;28;20045;-68
2024/01/29 00:58:50;;;;;;;3.25;2.13;;;;;;;19.47;36.30;102439.41;4988953;28;20054;-67
2024/01/29 01:01:15;;;;;;;3.50;2.40;;;;;;;19.39;36.42;102432.19;4986053;28;20563;-66
2024/01/29 01:03:41;;;;;;;3.55;2.38;;;;;;;19.48;36.28;102441.06;4982821;28;20043;-68
2024/01/29 01:06:09;;;;;;;2.45;2.08;;;;;;;19.47;36.27;102447.31;4991080;28;20109;-68
2024/01/29 01:08:34;;;;;;;3.50;2.40;;;;;;;19.46;36.27;102446.50;4976641;28;20080;-68
2024/01/29 01:11:00;;;;;;;2.75;2.20;;;;;;;19.45;36.28;102439.53;4990938;28;20241;-68
2024/01/29 01:13:25;;;;;;;3.55;2.50;;;;;;;19.45;36.07;102436.91;5004821;28;20370;-68
2024/01/29 01:15:51;;;;;;;3.40;2.45;;;;;;;19.38;36.35;102437.56;4983602;28;20046;-68
2024/01/29 01:18:16;;;;;;;3.38;2.47;;;;;;;19.45;36.31;102455.41;5001338;28;20046;-68
2024/01/29 01:20:42;;;;;;;2.85;2.15;;;;;;;19.43;36.17;102459.16;5005036;28;20038;-67
2024/01/29 01:23:07;;;;;;;3.15;2.05;;;;;;;19.40;36.36;102462.91;5008329;28;20054;-68
2024/01/29 01:25:33;;;;;;;2.42;2.10;;;;;;;19.39;36.23;102455.09;4987168;28;20702;-68
2024/01/29 01:27:58;;;;;;;3.08;2.28;;;;;;;19.44;36.28;102469.56;4988486;28;20410;-68
2024/01/29 01:30:24;;;;;;;2.20;1.98;;;;;;;19.43;36.34;102478.47;4991352;28;20050;-68
2024/01/29 01:32:50;;;;;;;2.78;2.17;;;;;;;19.19;36.49;102431.28;4991246;28;20042;-68
2024/01/29 01:35:15;;;;;;;3.85;2.30;;;;;;;19.38;36.34;102464.81;4982215;28;20184;-68
2024/01/29 01:37:41;;;;;;;3.88;2.40;;;;;;;19.38;36.39;102470.09;4989551;28;20042;-69
2024/01/29 01:40:07;;;;;;;2.55;2.10;;;;;;;19.41;36.36;102475.13;4994967;28;20054;-68
2024/01/29 01:42:33;;;;;;;3.45;2.05;;;;;;;19.41;36.23;102484.88;4984950;28;20042;-68
2024/01/29 01:44:58;;;;;;;3.15;2.30;;;;;;;19.37;36.25;102481.63;4993266;28;20034;-68
2024/01/29 01:47:24;;;;;;;3.28;2.33;;;;;;;19.37;36.43;102486.94;4990940;28;20034;-67
2024/01/29 01:49:50;;;;;;;2.90;2.17;;;;;;;19.40;36.37;102489.31;4991517;28;20063;-68
2024/01/29 01:52:17;;;;;;;2.40;2.20;;;;;;;19.40;36.41;102489.31;4987741;28;20149;-68
2024/01/29 01:54:44;;;;;;;3.00;2.17;;;;;;;19.37;36.31;102484.28;4986710;28;20505;-67
2024/01/29 01:57:10;;;;;;;3.30;2.30;;;;;;;19.41;36.29;102485.72;4988453;28;20462;-67
2024/01/29 01:59:38;;;;;;;2.88;2.08;;;;;;;19.40;36.53;102485.84;4987763;28;20056;-68
2024/01/29 02:02:05;;;;;;;2.33;2.10;;;;;;;19.40;36.28;102478.75;4987217;28;20073;-68
2024/01/29 02:04:30;;;;;;;3.78;1.98;;;;;;;19.33;36.45;102469.69;4995796;28;20144;-68
2024/01/29 02:06:58;;;;;;;3.58;2.38;;;;;;;19.37;36.38;102472.88;4986695;28;20562;-68
2024/01/29 02:09:23;;;;;;;2.90;2.38;;;;;;;19.41;36.22;102484.88;4989671;28;20467;-68
2024/01/29 02:11:49;;;;;;;2.53;2.20;;;;;;;19.38;36.34;102477.19;4989801;28;20048;-68
2024/01/29 02:14:15;;;;;;;3.25;2.20;;;;;;;19.36;36.40;102485.25;4990424;28;20489;-67
2024/01/29 02:16:40;;;;;;;2.58;2.10;;;;;;;19.33;36.42;102486.38;4985945;28;20053;-68
2024/01/29 02:19:18;;;;;;;2.00;1.80;;;;;;;19.32;36.34;102474.13;5002829;28;20041;-68
2024/01/29 02:21:44;;;;;;;2.00;1.77;;;;;;;19.37;36.41;102484.28;4995627;28;20030;-68
2024/01/29 02:24:10;;;;;;;3.20;2.38;;;;;;;19.23;36.34;102464.41;5005219;28;20050;-67
2024/01/29 02:26:36;;;;;;;2.92;2.10;;;;;;;19.37;36.34;102479.00;4992118;28;20054;-68
2024/01/29 02:29:01;;;;;;;3.05;2.30;;;;;;;19.33;36.32;102480.25;4988870;28;20424;-68
2024/01/29 02:31:27;;;;;;;3.13;2.25;;;;;;;19.30;36.34;102473.44;4993325;28;20026;-68
2024/01/29 02:33:52;;;;;;;3.35;2.28;;;;;;;19.35;36.31;102486.22;4987783;28;20034;-68
2024/01/29 02:36:18;;;;;;;2.60;2.00;;;;;;;19.30;36.41;102472.59;4993539;28;20034;-68
2024/01/29 02:38:44;;;;;;;4.10;2.25;;;;;;;19.32;36.28;102484.69;4985600;28;20093;-68
2024/01/29 02:41:09;;;;;;;2.90;2.00;;;;;;;19.28;36.36;102491.25;4988012;28;20492;-68
2024/01/29 02:43:35;;;;;;;2.72;2.10;;;;;;;19.34;36.42;102495.13;4988434;28;20034;-68
2024/01/29 02:46:00;;;;;;;2.40;2.00;;;;;;;19.25;36.54;102485.41;4998023;28;20101;-68
2024/01/29 02:48:26;;;;;;;2.60;2.08;;;;;;;19.31;36.45;102493.59;4986595;28;20030;-68
2024/01/29 02:50:52;;;;;;;3.08;2.10;;;;;;;19.36;36.31;102490.53;4990510;28;20987;-67
2024/01/29 02:53:17;;;;;;;2.90;2.28;;;;;;;19.32;36.46;102478.59;4997878;28;20184;-67
2024/01/29 02:55:43;;;;;;;2.50;2.28;;;;;;;19.26;36.34;102473.84;4988488;28;20038;-68
2024/01/29 02:58:08;;;;;;;2.50;1.98;;;;;;;19.33;36.34;102490.81;4989742;28;20053;-68
2024/01/29 03:00:34;;;;;;;2.67;2.20;;;;;;;19.29;36.45;102494.72;4984775;28;20108;-68
2024/01/29 03:02:59;;;;;;;2.40;2.20;;;;;;;19.28;36.38;102491.25;4986966;28;20048;-67
2024/01/29 03:05:25;;;;;;;2.35;1.98;;;;;;;19.26;36.53;102481.78;4987298;28;20081;-68
2024/01/29 03:07:51;;;;;;;2.83;2.33;;;;;;;19.25;36.44;102485.41;4999502;28;20726;-68
2024/01/29 03:10:17;;;;;;;2.67;2.38;;;;;;;19.25;36.62;102493.31;4991712;28;20152;-67
2024/01/29 03:12:42;;;;;;;2.40;1.90;;;;;;;19.21;36.47;102471.63;4986135;28;20039;-68
2024/01/29 03:15:08;;;;;;;2.97;2.45;;;;;;;19.18;36.49;102461.31;4991658;28;20402;-68
2024/01/29 03:17:34;;;;;;;2.53;2.25;;;;;;;19.21;36.35;102474.28;4990818;28;20046;-68
2024/01/29 03:19:59;;;;;;;2.63;2.30;;;;;;;19.22;36.45;102470.66;4992926;28;20705;-67
2024/01/29 03:22:24;;;;;;;2.63;2.00;;;;;;;19.22;36.32;102464.53;4996156;28;20111;-68
2024/01/29 03:24:50;;;;;;;3.17;2.10;;;;;;;19.21;36.46;102476.06;4987783;28;20041;-67
2024/01/29 03:27:16;;;;;;;3.05;2.42;;;;;;;19.20;36.54;102469.94;5009314;28;20141;-67
2024/01/29 03:29:41;;;;;;;2.40;2.03;;;;;;;19.21;36.58;102463.72;4988877;28;20466;-67
2024/01/29 03:32:07;;;;;;;2.42;2.05;;;;;;;19.15;36.45;102447.56;4991883;28;20038;-68
2024/01/29 03:34:32;;;;;;;3.08;2.35;;;;;;;19.14;36.68;102456.44;4984334;28;20042;-68
2024/01/29 03:36:58;;;;;;;2.30;2.10;;;;;;;19.18;36.43;102460.47;4988490;28;20038;-68
2024/01/29 03:39:23;;;;;;;2.78;1.88;;;;;;;19.18;36.71;102469.25;4989172;28;20093;-67
2024/01/29 03:41:49;;;;;;;2.60;2.15;;;;;;;19.14;36.36;102461.72;4994015;28;20639;-68
2024/01/29 03:44:15;;;;;;;2.50;2.10;;;;;;;19.17;36.61;102457.00;5001999;28;20061;-68
2024/01/29 03:46:41;;;;;;;2.63;2.10;;;;;;;19.20;36.50;102455.91;4988218;28;20085;-68
2024/01/29 03:49:07;;;;;;;3.30;2.40;;;;;;;19.16;36.45;102451.88;4988855;28;20037;-68
2024/01/29 03:51:32;;;;;;;3.13;2.10;;;;;;;19.19;36.58;102451.59;4988584;28;20053;-67
2024/01/29 03:53:58;;;;;;;2.53;2.20;;;;;;;19.02;36.66;102427.50;4989663;28;20042;-68
2024/01/29 03:56:23;;;;;;;2.30;2.10;;;;;;;19.16;36.65;102443.94;4984232;28;20042;-68
2024/01/29 03:58:49;;;;;;;2.28;2.08;;;;;;;19.15;36.53;102440.47;5000905;28;20042;-68
2024/01/29 04:01:24;;;;;;;2.47;2.13;;;;;;;19.12;36.46;102435.47;4983825;28;20387;-68
2024/01/29 04:03:50;;;;;;;3.00;1.98;;;;;;;19.16;36.52;102444.78;4992866;28;20040;-68
2024/01/29 04:06:16;;;;;;;3.05;2.00;;;;;;;19.13;36.43;102436.28;4990752;28;20845;-68
2024/01/29 04:08:41;;;;;;;2.22;1.83;;;;;;;19.16;36.49;102430.75;4990793;28;20111;-68
2024/01/29 04:11:07;;;;;;;2.67;2.20;;;;;;;19.17;36.50;102435.88;4992790;28;20042;-68
2024/01/29 04:13:34;;;;;;;2.30;2.10;;;;;;;19.14;36.33;102430.88;4989632;28;20378;-68
2024/01/29 04:16:00;;;;;;;2.25;2.00;;;;;;;19.17;36.44;102432.41;5005763;28;20042;-68
2024/01/29 04:18:25;;;;;;;3.03;2.17;;;;;;;19.16;36.45;102431.56;4992760;28;20054;-68
2024/01/29 04:20:52;;;;;;;3.10;2.40;;;;;;;19.10;36.61;102424.22;4989915;28;20109;-68
2024/01/29 04:23:18;;;;;;;2.72;2.13;;;;;;;19.08;36.36;102412.13;4993723;28;20049;-68
2024/01/29 04:25:43;;;;;;;3.42;2.20;;;;;;;19.17;36.44;102435.03;4988634;28;20378;-68
2024/01/29 04:28:09;;;;;;;2.30;1.88;;;;;;;19.15;36.46;102427.25;4985896;28;20144;-68
2024/01/29 04:30:34;;;;;;;3.45;2.20;;;;;;;19.16;36.51;102433.38;4983687;28;20100;-68
2024/01/29 04:33:00;;;;;;;2.97;2.17;;;;;;;19.10;36.78;102434.78;4984952;28;20046;-68
2024/01/29 04:35:25;;;;;;;2.17;1.92;;;;;;;19.06;36.65;102441.28;4987011;28;20050;-67
2024/01/29 04:37:51;;;;;;;3.38;2.22;;;;;;;19.14;36.42;102462.56;4985680;28;20050;-68
2024/01/29 04:40:16;;;;;;;3.30;2.03;;;;;;;19.15;36.44;102456.31;4985600;28;20046;-67
2024/01/29 04:42:42;;;;;;;3.20;2.20;;;;;;;19.14;36.44;102448.53;5001621;28;20034;-68
2024/01/29 04:45:08;;;;;;;2.17;1.98;;;;;;;19.13;36.53;102452.97;4991243;28;20462;-67
2024/01/29 04:47:33;;;;;;;3.03;2.10;;;;;;;19.10;36.53;102442.69;4986841;28;20404;-68
2024/01/29 04:49:59;;;;;;;2.88;1.95;;;;;;;19.10;36.61;102432.13;4987359;28;20030;-69
2024/01/29 04:52:25;;;;;;;2.35;2.00;;;;;;;19.15;36.54;102437.81;4985326;28;20046;-68
2024/01/29 04:54:50;;;;;;;2.28;1.95;;;;;;;19.11;36.62;102438.25;4983031;28;20050;-68
2024/01/29 04:57:15;;;;;;;3.15;2.42;;;;;;;19.13;36.48;102447.69;4983985;28;20031;-66
2024/01/29 04:59:41;;;;;;;2.72;2.28;;;;;;;19.11;36.47;102446.16;4979793;28;20592;-68
2024/01/29 05:02:07;;;;;;;2.95;2.00;;;;;;;19.03;36.64;102433.66;4984915;28;20053;-68
2024/01/29 05:04:32;;;;;;;3.67;2.42;;;;;;;19.09;36.51;102430.47;5006354;28;20427;-68
2024/01/29 05:06:58;;;;;;;3.22;2.30;;;;;;;19.05;36.50;102422.94;4995187;28;20046;-68
2024/01/29 05:09:23;;;;;;;2.67;2.00;;;;;;;19.02;36.70;102416.94;5006425;28;20042;-68
2024/01/29 05:11:49;;;;;;;2.65;2.10;;;;;;;19.04;36.53;102426.56;4996644;28;20156;-67
2024/01/29 05:14:14;;;;;;;2.88;2.30;;;;;;;19.13;36.54;102441.56;4993421;28;20065;-68
2024/01/29 05:16:40;;;;;;;2.30;2.10;;;;;;;19.07;36.69;102437.69;4982285;28;20128;-67
2024/01/29 05:19:05;;;;;;;3.03;2.10;;;;;;;19.04;36.41;102416.00;4989209;28;20042;-67
2024/01/29 05:21:31;;;;;;;2.78;2.40;;;;;;;19.14;36.48;102417.66;4992763;28;20043;-68
2024/01/29 05:23:56;;;;;;;3.15;2.08;;;;;;;19.19;36.38;102404.03;5006790;28;20552;-68
2024/01/29 05:26:22;;;;;;;3.13;2.38;;;;;;;19.20;36.26;102400.44;4989945;28;20062;-67
2024/01/29 05:28:47;;;;;;;2.33;2.13;;;;;;;19.22;36.19;102409.09;4992866;28;20065;-68
2024/01/29 05:31:13;;;;;;;2.83;2.28;;;;;;;19.27;36.30;102414.78;4997376;28;20049;-68
2024/01/29 05:33:38;;;;;;;2.42;2.22;;;;;;;19.29;36.23;102413.66;4995823;28;20101;-68
2024/01/29 05:36:04;;;;;;;3.90;2.30;;;;;;;19.30;36.28;102412.69;5010329;28;20687;-68
2024/01/29 05:38:32;;;;;;;2.60;2.00;;;;;;;19.25;36.30;102412.28;4992095;28;20038;-68
2024/01/29 05:40:57;;;;;;;2.90;2.22;;;;;;;19.26;36.33;102415.75;4989060;28;20042;-68
2024/01/29 05:43:23;;;;;;;4.35;2.30;;;;;;;19.26;36.38;102407.81;4986756;28;20033;-68
2024/01/29 05:45:49;;;;;;;2.65;2.15;;;;;;;19.19;36.34;102404.03;4985215;28;20362;-67
2024/01/29 05:48:14;;;;;;;2.97;2.15;;;;;;;19.13;36.47;102420.44;5003457;28;20703;-68
2024/01/29 05:50:40;;;;;;;3.13;2.25;;;;;;;19.07;36.39;102406.00;4988126;28;20088;-68
2024/01/29 05:53:05;;;;;;;4.18;2.28;;;;;;;19.21;36.36;102437.31;4993451;28;20049;-68
2024/01/29 05:55:31;;;;;;;3.53;2.08;;;;;;;19.20;36.50;102443.53;4995692;28;20097;-67
2024/01/29 05:57:56;;;;;;;2.38;1.90;;;;;;;19.17;36.58;102451.72;5009760;28;20045;-68
2024/01/29 06:00:22;;;;;;;2.35;1.83;;;;;;;19.18;36.67;102449.91;4991214;28;20038;-68
2024/01/29 06:02:49;;;;;;;2.60;2.10;;;;;;;19.10;36.60;102439.22;5001455;28;20100;-68
2024/01/29 06:05:15;;;;;;;3.60;2.17;;;;;;;19.16;36.67;102443.94;4998672;28;20041;-67
2024/01/29 06:07:41;;;;;;;3.22;2.22;;;;;;;19.16;36.52;102450.06;4984572;28;21387;-68
2024/01/29 06:10:08;;;;;;;2.83;2.00;;;;;;;19.11;36.67;102449.63;4983734;28;20038;-68
2024/01/29 06:12:34;;;;;;;3.58;2.08;;;;;;;19.10;36.69;102447.13;4986984;28;20043;-68
2024/01/29 06:15:00;;;;;;;3.05;2.08;;;;;;;19.07;36.73;102440.31;4998353;28;20531;-68
2024/01/29 06:17:26;;;;;;;3.67;2.35;;;;;;;19.09;36.57;102441.03;4981161;28;20143;-68
2024/01/29 06:19:51;;;;;;;2.20;2.00;;;;;;;19.12;36.64;102461.88;5007116;28;20579;-67
2024/01/29 06:22:18;;;;;;;2.97;2.40;;;;;;;19.09;36.76;102448.94;4995833;28;20041;-70
2024/01/29 06:24:43;;;;;;;2.40;2.10;;;;;;;18.98;36.64;102431.41;4987696;28;20034;-68
2024/01/29 06:27:09;;;;;;;2.15;1.95;;;;;;;18.99;36.77;102425.13;4985884;28;20127;-68
2024/01/29 06:29:34;;;;;;;3.15;2.30;;;;;;;19.09;36.76;102441.03;4991135;28;20061;-68
2024/01/29 06:32:01;;;;;;;2.83;2.25;;;;;;;19.03;36.46;102428.38;4992768;28;20069;-68
2024/01/29 06:34:27;;;;;;;2.63;2.10;;;;;;;19.10;36.69;102434.78;4988036;28;20100;-68
2024/01/29 06:36:53;;;;;;;2.67;2.20;;;;;;;19.07;36.59;102427.13;4992876;28;20046;-68
2024/01/29 06:39:20;;;;;;;3.30;2.42;;;;;;;19.07;36.77;102440.31;4987816;28;20044;-68
2024/01/29 06:41:45;;;;;;;4.15;2.40;;;;;;;19.06;36.48;102441.28;4986159;28;20054;-68
2024/01/29 06:44:11;;;;;;;3.00;2.13;;;;;;;19.04;36.65;102448.53;4991402;28;20050;-68
2024/01/29 06:46:37;;;;;;;2.25;2.05;;;;;;;18.98;36.80;102444.59;4993081;28;20069;-67
2024/01/29 06:49:02;;;;;;;3.42;2.22;;;;;;;18.99;36.92;102463.91;4986445;28;20062;-68
2024/01/29 06:51:28;;;;;;;2.10;2.00;;;;;;;19.04;36.71;102464.38;4993931;28;20064;-68
2024/01/29 06:53:54;;;;;;;2.85;2.28;;;;;;;19.00;36.85;102463.78;4990696;28;20038;-67
2024/01/29 06:56:19;;;;;;;2.60;2.30;;;;;;;18.93;36.82;102456.53;4983972;28;20112;-68
2024/01/29 06:58:45;;;;;;;2.78;2.45;;;;;;;18.97;36.96;102460.56;4990101;28;20030;-68
2024/01/29 07:01:10;;;;;;;2.15;1.95;;;;;;;18.99;36.77;102469.19;5005064;28;20043;-68
2024/01/29 07:03:36;;;;;;;3.20;2.35;;;;;;;18.97;36.88;102473.78;4989862;28;20057;-67
2024/01/29 07:06:01;;;;;;;2.60;2.20;;;;;;;18.95;36.86;102478.34;4988097;28;20049;-68
2024/01/29 07:08:27;;;;;;;2.22;2.00;;;;;;;18.97;36.87;102481.69;4992580;28;20458;-67
2024/01/29 07:10:53;;;;;;;2.97;2.15;;;;;;;19.00;36.84;102473.50;4990684;28;20056;-68
2024/01/29 07:13:18;;;;;;;2.63;2.20;;;;;;;18.86;37.00;102472.09;4986418;28;20082;-68
2024/01/29 07:15:44;;;;;;;3.15;2.03;;;;;;;18.89;36.76;102469.16;4987845;28;20081;-68
2024/01/29 07:18:09;;;;;;;2.75;2.30;;;;;;;18.94;36.79;102471.41;4980210;28;20042;-68
2024/01/29 07:20:39;;;;;;;9.00;3.28;;;;;;;19.26;36.05;102479.97;4988847;28;20364;-67
2024/01/29 07:23:06;;;;;;;3.13;2.50;;;;;;;19.35;36.02;102480.13;4981690;28;20050;-68
2024/01/29 07:25:31;;;;;;;3.92;2.65;;;;;;;19.51;36.07;102475.97;4979652;28;20374;-68
2024/01/29 07:28:03;;;;;;;2.63;2.17;;;;;;;19.88;35.67;102475.31;4982029;28;20054;-68
2024/01/29 07:30:29;;;;;;;3.08;2.42;;;;;;;20.19;35.33;102486.56;4989767;28;20039;-68
2024/01/29 07:32:55;;;;;;;2.38;2.08;;;;;;;20.47;34.98;102487.50;4981348;28;20077;-68
2024/01/29 07:35:20;;;;;;;8.73;2.33;;;;;;;20.63;34.75;102490.34;4989535;28;20194;-67
2024/01/29 07:37:46;;;;;;;5.50;2.70;;;;;;;20.36;34.97;102475.25;4983082;28;20562;-67
2024/01/29 07:40:12;;;;;;;3.90;2.50;;;;;;;20.36;35.16;102496.41;5000586;28;20620;-67
2024/01/29 07:42:37;;;;;;;3.40;2.40;;;;;;;20.23;35.41;102485.28;4980755;28;20038;-67
2024/01/29 07:45:03;;;;;;;3.00;2.20;;;;;;;20.29;35.15;102497.09;4984191;28;20121;-66
2024/01/29 07:47:29;;;;;;;3.45;2.40;;;;;;;20.34;35.17;102495.72;4991171;28;20038;-66
2024/01/29 07:49:54;;;;;;;3.33;2.15;;;;;;;20.31;35.22;102503.94;4982858;28;20104;-67
2024/01/29 07:52:20;;;;;;;3.58;2.13;;;;;;;20.25;35.39;102508.94;4998900;28;20044;-67
2024/01/29 07:54:46;;;;;;;2.58;2.30;;;;;;;20.20;35.44;102502.28;4986979;28;20041;-67
2024/01/29 07:57:11;;;;;;;4.47;2.47;;;;;;;20.11;35.50;102497.84;4988436;28;20050;-67
2024/01/29 07:59:36;;;;;;;3.10;2.00;;;;;;;20.20;35.44;102514.66;4983562;28;20612;-66
2024/01/29 08:02:02;;;;;;;3.38;2.30;;;;;;;20.14;35.51;102489.63;5009019;28;20034;-65
2024/01/29 08:04:28;;;;;;;3.47;2.40;;;;;;;20.25;35.33;102511.59;4985560;28;20042;-67
2024/01/29 08:06:53;;;;;;;3.70;2.50;;;;;;;20.16;35.29;102502.72;4986646;28;20663;-67
2024/01/29 08:09:19;;;;;;;3.67;2.45;;;;;;;20.23;35.33;102511.75;4979896;28;20080;-67
2024/01/29 08:11:45;;;;;;;3.65;2.30;;;;;;;20.20;35.30;102514.66;4991203;28;20042;-67
2024/01/29 08:14:11;;;;;;;2.90;2.47;;;;;;;20.21;35.43;102530.41;4983384;28;20041;-67
2024/01/29 08:16:36;;;;;;;2.90;2.40;;;;;;;20.17;35.46;102523.72;4987699;28;20394;-65
2024/01/29 08:19:02;;;;;;;3.20;2.35;;;;;;;20.09;35.47;102512.16;4994831;28;20046;-65
2024/01/29 08:21:27;;;;;;;3.13;2.08;;;;;;;20.03;35.41;102505.63;4983223;28;20068;-65
2024/01/29 08:23:53;;;;;;;2.38;2.17;;;;;;;20.11;35.58;102526.94;4990595;28;20053;-65
2024/01/29 08:26:19;;;;;;;4.75;2.40;;;;;;;20.09;35.46;102531.50;4986836;28;20073;-65
2024/01/29 08:28:44;;;;;;;3.67;2.42;;;;;;;20.07;35.64;102528.19;4988719;28;20034;-66
2024/01/29 08:31:10;;;;;;;3.67;2.50;;;;;;;20.02;35.68;102519.84;4985334;28;20107;-65
2024/01/29 08:33:36;;;;;;;3.28;2.50;;;;;;;20.22;35.39;102531.22;4995823;28;20039;-65
2024/01/29 08:36:01;;;;;;;5.45;2.40;;;;;;;20.24;35.34;102521.34;5004730;28;20043;-66
2024/01/29 08:38:27;;;;;;;3.90;2.40;;;;;;;20.26;35.17;102529.97;4985893;28;20463;-65
2024/01/29 08:40:54;;;;;;;2.58;2.38;;;;;;;20.32;35.41;102531.22;4986155;28;20158;-65
2024/01/29 08:43:20;;;;;;;2.40;2.20;;;;;;;20.35;35.22;102538.88;4984097;28;20084;-65
2024/01/29 08:45:46;;;;;;;2.97;2.45;;;;;;;20.41;35.16;102535.69;4982933;28;20132;-65
2024/01/29 08:48:11;;;;;;;3.20;2.45;;;;;;;20.37;35.33;102535.13;4984801;28;20038;-65
2024/01/29 08:50:37;;;;;;;2.83;2.30;;;;;;;20.39;35.02;102529.69;4983692;28;20450;-65
2024/01/29 08:53:03;;;;;;;3.17;2.30;;;;;;;20.44;35.13;102527.47;4983401;28;20041;-65
2024/01/29 08:55:31;;;;;;;2.85;2.28;;;;;;;20.43;35.14;102525.78;4987829;28;20049;-65
2024/01/29 08:57:57;;;;;;;3.08;2.47;;;;;;;20.40;35.08;102536.63;4987073;28;20042;-65
2024/01/29 09:00:23;;;;;;;2.83;2.33;;;;;;;20.40;35.10;102547.22;4986934;28;20101;-64
2024/01/29 09:02:49;;;;;;;4.00;2.60;;;;;;;20.37;35.02;102540.41;4988318;28;20053;-65
2024/01/29 09:05:16;;;;;;;3.63;2.97;;;;;;;20.36;35.19;102551.13;4986351;28;20065;-65
2024/01/29 09:07:41;;;;;;;2.65;2.22;;;;;;;20.29;35.26;102536.78;4999720;28;20046;-65
2024/01/29 09:10:08;;;;;;;4.00;2.70;;;;;;;20.34;35.25;102553.09;4979365;28;20049;-65
2024/01/29 09:12:33;;;;;;;3.42;2.47;;;;;;;20.30;35.40;102555.19;4984517;28;20050;-65
2024/01/29 09:14:59;;;;;;;2.78;2.25;;;;;;;20.27;35.16;102558.09;4982786;28;20038;-65
2024/01/29 09:17:24;;;;;;;2.97;2.22;;;;;;;20.19;35.29;102550.88;4983999;28;20403;-65
2024/01/29 09:19:51;;;;;;;4.35;2.67;;;;;;;20.25;35.23;102557.41;4984585;28;20378;-65
2024/01/29 09:22:18;;;;;;;3.53;2.33;;;;;;;20.22;35.32;102553.22;5001214;28;20038;-65
2024/01/29 09:24:43;;;;;;;2.83;2.50;;;;;;;20.15;35.35;102551.28;4986587;28;20367;-65
2024/01/29 09:27:10;;;;;;;2.78;2.40;;;;;;;20.14;35.39;102549.63;4993279;28;20050;-65
2024/01/29 09:29:35;;;;;;;3.25;2.50;;;;;;;20.09;35.30;102546.53;4977497;28;20101;-65
2024/01/29 09:32:01;;;;;;;3.97;2.50;;;;;;;20.14;35.48;102557.56;4982242;28;20419;-65
2024/01/29 09:34:27;;;;;;;3.58;2.58;;;;;;;20.25;35.45;102564.50;4977469;28;20512;-65
2024/01/29 09:36:54;;;;;;;3.85;2.53;;;;;;;20.34;35.17;102559.22;4978634;28;20057;-65
2024/01/29 09:39:22;;;;;;;3.60;2.70;;;;;;;20.45;34.94;102559.06;4988302;28;20048;-65
2024/01/29 09:41:49;;;;;;;3.60;2.70;;;;;;;20.47;34.98;102551.03;4981254;28;20065;-65
2024/01/29 09:44:15;;;;;;;2.95;2.35;;;;;;;20.49;35.15;102562.28;4987785;28;20681;-65
2024/01/29 09:46:41;;;;;;;3.45;2.42;;;;;;;20.45;34.89;102561.72;5004353;28;20039;-65
2024/01/29 09:49:07;;;;;;;3.13;2.58;;;;;;;20.57;34.83;102567.69;4998914;28;20046;-65
2024/01/29 09:51:33;;;;;;;2.88;2.30;;;;;;;20.43;35.22;102566.31;4983491;28;20046;-68
2024/01/29 09:54:02;;;;;;;3.33;2.22;;;;;;;20.24;35.62;102576.91;4985864;28;20510;-62
2024/01/29 09:56:31;;;;;;;4.82;3.05;;;;;;;20.31;35.65;102575.38;5005492;28;20065;-62
2024/01/29 09:58:56;;;;;;;3.65;2.60;;;;;;;20.39;35.72;102572.84;4984574;28;20471;-62
2024/01/29 10:01:23;;;;;;;6.47;2.78;;;;;;;20.40;35.85;102584.25;4992334;28;20108;-62
2024/01/29 10:03:49;;;;;;;5.28;2.70;;;;;;;20.40;35.60;102585.09;5003422;28;20049;-62
2024/01/29 10:06:15;;;;;;;3.13;2.65;;;;;;;20.34;35.62;102588.31;4985221;28;20614;-64
2024/01/29 10:08:41;;;;;;;4.20;2.40;;;;;;;20.31;35.95;102583.31;4986009;28;20037;-62
2024/01/29 10:11:07;;;;;;;5.22;2.72;;;;;;;20.18;35.86;102570.38;4986651;28;20060;-62
2024/01/29 10:13:33;;;;;;;6.28;3.17;;;;;;;20.32;35.92;102592.91;4983720;28;20243;-62
2024/01/29 10:15:59;;;;;;;3.35;2.60;;;;;;;20.33;35.91;102593.75;4990871;28;20604;-64
2024/01/29 10:18:25;;;;;;;4.38;3.03;;;;;;;20.21;35.94;102593.88;4983671;28;20108;-62
2024/01/29 10:21:00;;;;;;;3.83;2.60;;;;;;;20.27;35.80;102599.59;4989028;28;20043;-62
2024/01/29 10:23:27;;;;;;;4.78;2.72;;;;;;;20.29;35.85;102594.97;4989432;28;20042;-62
2024/01/29 10:25:57;;;;;;;4.43;2.75;;;;;;;20.21;35.92;102601.81;4992470;28;20053;-62
2024/01/29 10:28:23;;;;;;;4.13;2.88;;;;;;;20.23;35.97;102601.69;4987853;28;20034;-62
2024/01/29 10:30:50;;;;;;;5.72;2.83;;;;;;;20.24;35.98;102598.06;4984464;28;20085;-61
2024/01/29 10:33:16;;;;;;;4.78;2.97;;;;;;;20.30;35.62;102594.88;4992337;28;20038;-61
2024/01/29 10:35:41;;;;;;;3.95;2.88;;;;;;;20.36;35.48;102585.53;4983687;28;20045;-62
2024/01/29 10:38:07;;;;;;;3.05;2.42;;;;;;;20.40;35.41;102594.84;4985180;28;20058;-62
2024/01/29 10:40:33;;;;;;;3.50;2.60;;;;;;;20.43;35.61;102600.72;4982845;28;20570;-62
2024/01/29 10:43:00;;;;;;;3.78;2.80;;;;;;;20.45;35.44;102601.41;4989014;28;20108;-62
2024/01/29 10:45:27;;;;;;;4.07;2.60;;;;;;;20.42;35.40;102600.88;4990358;28;20038;-62
2024/01/29 10:48:02;;;;;;;3.13;2.47;;;;;;;20.35;35.42;102597.91;4976616;28;20042;-62
2024/01/29 10:50:28;;;;;;;4.30;2.80;;;;;;;20.37;35.49;102595.13;4981159;28;20029;-61
2024/01/29 10:52:55;;;;;;;4.47;2.75;;;;;;;20.33;35.45;102604.34;4982701;28;20112;-62
2024/01/29 10:55:20;;;;;;;4.25;2.55;;;;;;;20.35;35.48;102599.72;4987529;28;20115;-62
2024/01/29 10:57:47;;;;;;;4.45;2.70;;;;;;;20.27;35.46;102581.91;4981216;28;20038;-62
2024/01/29 11:00:17;;;;;;;5.18;2.72;;;;;;;20.31;35.43;102590.41;4984183;28;20501;-62
2024/01/29 11:02:44;;;;;;;3.13;2.60;;;;;;;20.31;35.41;102578.03;4984484;28;20043;-62
2024/01/29 11:05:11;;;;;;;3.67;2.63;;;;;;;20.28;35.44;102588.03;4985317;28;20046;-62
2024/01/29 11:07:38;;;;;;;3.55;2.60;;;;;;;20.28;35.52;102588.84;4984172;28;20034;-62
2024/01/29 11:10:21;;;;;;;4.63;2.78;;;;;;;20.24;35.53;102587.47;4980540;28;20055;-62
2024/01/29 11:12:50;;;;;;;3.33;2.75;;;;;;;20.19;35.37;102579.97;4989189;28;20034;-62
2024/01/29 11:15:16;;;;;;;5.13;2.70;;;;;;;20.32;35.31;102581.50;4973844;28;20138;-62
2024/01/29 11:17:42;;;;;;;5.03;2.67;;;;;;;20.43;35.16;102584.00;4993253;28;20038;-62